createdAt,value
2022-12-11T00:00:06.714Z,19.17
2022-12-11T00:02:34.464Z,17.03
2022-12-11T00:05:02.317Z,21.03
2022-12-11T00:07:29.916Z,19.30
2022-12-11T00:09:57.581Z,18.50
2022-12-11T00:12:25.130Z,19.10
2022-12-11T00:14:53.179Z,18.27
2022-12-11T00:17:22.125Z,14.73
2022-12-11T00:19:49.667Z,17.03
2022-12-11T00:22:17.291Z,18.07
2022-12-11T00:24:44.840Z,18.80
2022-12-11T00:27:13.008Z,16.23
2022-12-11T00:29:41.315Z,15.73
2022-12-11T00:32:09.158Z,14.53
2022-12-11T00:34:38.397Z,13.70
2022-12-11T00:37:05.974Z,19.97
2022-12-11T00:39:33.625Z,13.10
2022-12-11T00:42:01.189Z,14.43
2022-12-11T00:44:28.904Z,11.53
2022-12-11T00:46:56.615Z,15.40
2022-12-11T00:49:24.216Z,12.50
2022-12-11T00:51:53.415Z,16.57
2022-12-11T00:54:21.185Z,14.07
2022-12-11T00:56:48.820Z,19.67
2022-12-11T00:59:16.457Z,10.63
2022-12-11T01:01:44.135Z,15.30
2022-12-11T01:04:11.722Z,22.00
2022-12-11T01:06:40.212Z,14.27
2022-12-11T01:09:26.633Z,19.27
2022-12-11T01:11:54.332Z,15.50
2022-12-11T01:14:21.971Z,15.67
2022-12-11T01:16:49.586Z,13.37
2022-12-11T01:19:17.372Z,19.40
2022-12-11T01:21:44.964Z,13.50
2022-12-11T01:24:13.947Z,14.30
2022-12-11T01:26:41.694Z,16.73
2022-12-11T01:29:09.358Z,18.73
2022-12-11T01:31:37.912Z,14.83
2022-12-11T01:34:05.490Z,15.13
2022-12-11T01:36:33.098Z,19.87
2022-12-11T01:39:01.047Z,18.60
2022-12-11T01:41:30.146Z,14.97
2022-12-11T01:43:59.537Z,21.10
2022-12-11T01:46:27.735Z,19.90
2022-12-11T01:48:56.686Z,13.60
2022-12-11T01:51:25.426Z,13.30
2022-12-11T01:53:56.927Z,18.37
2022-12-11T01:56:25.382Z,13.33
2022-12-11T01:58:59.712Z,15.30
2022-12-11T02:01:32.914Z,10.47
2022-12-11T02:04:00.862Z,17.00
2022-12-11T02:06:33.247Z,14.77
2022-12-11T02:09:01.935Z,10.97
2022-12-11T02:11:39.801Z,15.63
2022-12-11T02:14:15.048Z,15.90
2022-12-11T02:16:47.784Z,17.57
2022-12-11T02:19:29.831Z,12.67
2022-12-11T02:21:58.225Z,13.30
2022-12-11T02:24:39.836Z,12.53
2022-12-11T02:27:19.304Z,20.53
2022-12-11T02:29:51.844Z,14.20
2022-12-11T02:32:23.606Z,14.73
2022-12-11T02:34:59.006Z,17.30
2022-12-11T02:37:31.203Z,14.70
2022-12-11T02:39:59.105Z,11.23
2022-12-11T02:42:31.917Z,21.10
2022-12-11T02:45:03.231Z,17.53
2022-12-11T02:47:33.192Z,14.40
2022-12-11T02:50:03.724Z,19.03
2022-12-11T02:52:33.878Z,17.00
2022-12-11T02:55:03.558Z,15.10
2022-12-11T02:57:36.903Z,19.13
2022-12-11T03:00:09.338Z,14.60
2022-12-11T03:02:37.625Z,14.93
2022-12-11T03:05:06.463Z,11.53
2022-12-11T03:07:38.054Z,13.60
2022-12-11T03:10:07.207Z,12.80
2022-12-11T03:12:38.172Z,18.77
2022-12-11T03:15:11.662Z,15.93
2022-12-11T03:17:45.605Z,10.87
2022-12-11T03:20:19.461Z,16.40
2022-12-11T03:22:52.826Z,19.03
2022-12-11T03:25:24.448Z,14.10
2022-12-11T03:28:01.357Z,12.93
2022-12-11T03:30:34.260Z,21.73
2022-12-11T03:33:06.351Z,14.93
2022-12-11T03:35:38.132Z,10.00
2022-12-11T03:38:09.778Z,16.93
2022-12-11T03:40:40.541Z,13.50
2022-12-11T03:43:08.931Z,14.50
2022-12-11T03:45:41.023Z,12.60
2022-12-11T03:48:11.037Z,18.80
2022-12-11T03:50:40.425Z,16.53
2022-12-11T03:53:08.760Z,13.00
2022-12-11T03:55:38.672Z,14.80
2022-12-11T03:58:06.548Z,17.93
2022-12-11T04:00:34.329Z,16.07
2022-12-11T04:03:16.336Z,11.93
2022-12-11T04:05:46.307Z,17.37
2022-12-11T04:08:14.878Z,13.53
2022-12-11T04:10:42.981Z,14.70
2022-12-11T04:13:11.514Z,19.67
2022-12-11T04:15:39.319Z,13.37
2022-12-11T04:18:26.590Z,18.70
2022-12-11T04:21:12.175Z,13.80
2022-12-11T04:23:57.607Z,16.27
2022-12-11T04:26:25.199Z,14.07
2022-12-11T04:28:53.488Z,14.23
2022-12-11T04:31:23.363Z,23.03
2022-12-11T04:33:53.141Z,14.60
2022-12-11T04:36:20.730Z,21.37
2022-12-11T04:38:51.445Z,11.53
2022-12-11T04:41:19.435Z,17.43
2022-12-11T04:43:47.005Z,13.80
2022-12-11T04:46:16.836Z,17.13
2022-12-11T04:48:45.143Z,20.30
2022-12-11T04:51:15.060Z,12.83
2022-12-11T04:53:42.786Z,15.20
2022-12-11T04:56:12.663Z,16.90
2022-12-11T04:58:41.299Z,13.70
2022-12-11T05:01:09.511Z,14.87
2022-12-11T05:03:37.422Z,14.60
2022-12-11T05:06:06.140Z,25.27
2022-12-11T05:08:36.883Z,19.97
2022-12-11T05:11:06.700Z,15.40
2022-12-11T05:13:34.727Z,12.50
2022-12-11T05:16:04.862Z,19.50
2022-12-11T05:18:32.816Z,18.23
2022-12-11T05:21:02.661Z,16.40
2022-12-11T05:23:30.487Z,17.23
2022-12-11T05:26:00.945Z,15.87
2022-12-11T05:28:30.259Z,19.17
2022-12-11T05:30:58.475Z,17.33
2022-12-11T05:33:27.304Z,19.60
2022-12-11T05:35:54.948Z,18.30
2022-12-11T05:38:22.565Z,11.70
2022-12-11T05:40:56.759Z,22.13
2022-12-11T05:43:28.898Z,13.33
2022-12-11T05:45:57.604Z,12.17
2022-12-11T05:48:25.348Z,14.67
2022-12-11T05:51:00.014Z,18.30
2022-12-11T05:53:28.527Z,21.60
2022-12-11T05:55:56.449Z,17.27
2022-12-11T05:58:24.025Z,20.63
2022-12-11T06:00:52.981Z,17.60
2022-12-11T06:03:20.615Z,22.90
2022-12-11T06:05:48.393Z,18.83
2022-12-11T06:08:16.236Z,17.03
2022-12-11T06:10:46.427Z,17.83
2022-12-11T06:13:14.403Z,18.23
2022-12-11T06:15:42.429Z,15.27
2022-12-11T06:18:11.501Z,19.47
2022-12-11T06:20:39.030Z,22.73
2022-12-11T06:23:06.778Z,22.83
2022-12-11T06:25:34.776Z,21.30
2022-12-11T06:28:02.769Z,14.77
2022-12-11T06:30:38.510Z,21.00
2022-12-11T06:33:07.183Z,20.37
2022-12-11T06:35:41.724Z,23.30
2022-12-11T06:38:10.448Z,20.37
2022-12-11T06:40:38.107Z,17.80
2022-12-11T06:43:05.653Z,21.07
2022-12-11T06:45:33.368Z,22.63
2022-12-11T06:48:00.939Z,15.47
2022-12-11T06:50:28.492Z,23.73
2022-12-11T06:52:57.909Z,17.27
2022-12-11T06:55:25.486Z,16.50
2022-12-11T06:57:53.149Z,21.90
2022-12-11T07:00:21.023Z,18.80
2022-12-11T07:02:48.607Z,18.30
2022-12-11T07:05:16.439Z,18.97
2022-12-11T07:07:44.009Z,22.13
2022-12-11T07:10:12.980Z,20.73
2022-12-11T07:12:40.654Z,17.63
2022-12-11T07:15:09.539Z,19.40
2022-12-11T07:17:37.372Z,15.13
2022-12-11T07:20:06.102Z,16.00
2022-12-11T07:22:33.836Z,19.80
2022-12-11T07:25:01.501Z,20.00
2022-12-11T07:27:30.545Z,21.37
2022-12-11T07:29:58.086Z,20.47
2022-12-11T07:32:25.816Z,19.97
2022-12-11T07:34:53.455Z,22.80
2022-12-11T07:37:21.007Z,24.97
2022-12-11T07:39:48.908Z,17.27
2022-12-11T07:42:16.473Z,22.10
2022-12-11T07:44:45.363Z,24.07
2022-12-11T07:47:12.928Z,19.60
2022-12-11T07:49:40.526Z,20.13
2022-12-11T07:52:08.148Z,24.63
2022-12-11T07:54:35.732Z,13.20
2022-12-11T07:57:03.335Z,13.40
2022-12-11T07:59:30.972Z,19.07
2022-12-11T08:02:00.042Z,20.80
2022-12-11T08:04:27.955Z,15.80
2022-12-11T08:06:55.614Z,19.97
2022-12-11T08:09:23.331Z,19.47
2022-12-11T08:11:51.490Z,19.43
2022-12-11T08:14:19.834Z,25.90
2022-12-11T08:16:47.781Z,20.37
2022-12-11T08:19:17.863Z,17.50
2022-12-11T08:21:45.584Z,19.90
2022-12-11T08:24:14.576Z,17.30
2022-12-11T08:26:42.140Z,22.13
2022-12-11T08:29:11.167Z,22.30
2022-12-11T08:31:39.666Z,22.17
2022-12-11T08:34:07.510Z,21.83
2022-12-11T08:36:36.525Z,22.40
2022-12-11T08:39:04.170Z,18.90
2022-12-11T08:41:32.103Z,17.53
2022-12-11T08:44:01.685Z,18.50
2022-12-11T08:46:32.029Z,20.53
2022-12-11T08:49:00.615Z,16.40
2022-12-11T08:51:31.622Z,20.10
2022-12-11T08:54:02.118Z,17.20
2022-12-11T08:56:30.597Z,17.10
2022-12-11T08:59:00.548Z,22.33
2022-12-11T09:01:29.080Z,17.77
2022-12-11T09:03:57.881Z,22.33
2022-12-11T09:06:28.050Z,23.57
2022-12-11T09:08:57.139Z,23.30
2022-12-11T09:11:29.023Z,20.03
2022-12-11T09:13:58.210Z,16.47
2022-12-11T09:16:29.595Z,21.33
2022-12-11T09:18:59.470Z,26.30
2022-12-11T09:21:29.227Z,21.87
2022-12-11T09:23:58.701Z,17.63
2022-12-11T09:26:29.236Z,18.80
2022-12-11T09:28:57.199Z,16.73
2022-12-11T09:31:26.826Z,22.63
2022-12-11T09:33:57.375Z,26.90
2022-12-11T09:36:25.244Z,22.00
2022-12-11T09:38:53.545Z,18.83
2022-12-11T09:41:47.708Z,19.57
2022-12-11T09:44:23.244Z,26.43
2022-12-11T09:46:52.567Z,22.07
2022-12-11T09:49:34.580Z,19.10
2022-12-11T09:52:11.528Z,21.47
2022-12-11T09:54:44.787Z,26.13
2022-12-11T09:57:24.872Z,18.10
2022-12-11T10:00:11.171Z,19.27
2022-12-11T10:02:50.521Z,21.00
2022-12-11T10:05:23.361Z,17.90
2022-12-11T10:08:00.455Z,23.93
2022-12-11T10:10:40.184Z,14.90
2022-12-11T10:13:21.625Z,16.37
2022-12-11T10:15:55.431Z,16.83
2022-12-11T10:18:27.215Z,20.87
2022-12-11T10:20:56.627Z,19.13
2022-12-11T10:23:30.370Z,24.13
2022-12-11T10:26:04.080Z,20.47
2022-12-11T10:28:33.009Z,22.53
2022-12-11T10:31:11.875Z,18.50
2022-12-11T10:33:48.031Z,20.83
2022-12-11T10:36:21.557Z,24.33
2022-12-11T10:38:49.328Z,19.17
2022-12-11T10:41:21.237Z,18.67
2022-12-11T10:43:52.962Z,15.37
2022-12-11T10:46:25.330Z,17.97
2022-12-11T10:48:54.787Z,17.83
2022-12-11T10:51:25.400Z,26.30
2022-12-11T10:53:55.102Z,15.40
2022-12-11T10:56:30.132Z,17.93
2022-12-11T10:59:01.101Z,24.33
2022-12-11T11:01:32.032Z,24.07
2022-12-11T11:04:03.365Z,19.97
2022-12-11T11:06:31.628Z,21.80
2022-12-11T11:09:03.756Z,23.33
2022-12-11T11:11:34.333Z,21.10
2022-12-11T11:14:24.100Z,17.23
2022-12-11T11:16:53.544Z,20.47
2022-12-11T11:19:25.586Z,21.20
2022-12-11T11:21:56.670Z,21.50
2022-12-11T11:24:30.848Z,19.30
2022-12-11T11:27:14.533Z,15.63
2022-12-11T11:29:47.776Z,29.43
2022-12-11T11:32:23.474Z,17.60
2022-12-11T11:34:51.211Z,17.97
2022-12-11T11:37:31.254Z,15.87
2022-12-11T11:40:05.051Z,17.50
2022-12-11T11:42:42.359Z,18.40
2022-12-11T11:45:18.387Z,19.73
2022-12-11T11:47:57.887Z,20.90
2022-12-11T11:50:30.977Z,21.93
2022-12-11T11:53:04.817Z,18.93
2022-12-11T11:55:53.489Z,17.40
2022-12-11T11:58:27.946Z,15.20
2022-12-11T12:00:56.957Z,18.77
2022-12-11T12:03:26.598Z,14.70
2022-12-11T12:05:59.203Z,19.93
2022-12-11T12:08:42.961Z,18.03
2022-12-11T12:11:20.055Z,18.23
2022-12-11T12:13:57.723Z,17.20
2022-12-11T12:16:53.364Z,15.87
2022-12-11T12:19:34.972Z,15.00
2022-12-11T12:22:17.097Z,15.03
2022-12-11T12:24:56.398Z,15.33
2022-12-11T12:30:23.856Z,15.73
2022-12-11T12:33:13.853Z,22.67
2022-12-11T12:35:50.939Z,16.53
2022-12-11T12:38:24.752Z,14.10
2022-12-11T12:41:04.202Z,21.47
2022-12-11T12:43:48.389Z,16.97
2022-12-11T12:46:26.624Z,20.97
2022-12-11T12:48:58.581Z,21.87
2022-12-11T12:51:28.056Z,32.20
2022-12-11T12:53:59.093Z,18.93
2022-12-11T12:56:30.147Z,22.10
2022-12-11T12:58:57.757Z,18.77
2022-12-11T13:01:28.415Z,18.67
2022-12-11T13:03:59.628Z,24.80
2022-12-11T13:06:39.454Z,20.33
2022-12-11T13:09:17.935Z,14.00
2022-12-11T13:11:46.790Z,22.50
2022-12-11T13:14:32.327Z,22.70
2022-12-11T13:17:09.192Z,28.07
2022-12-11T13:19:42.554Z,21.50
2022-12-11T13:22:24.161Z,52.57
2022-12-11T13:25:01.615Z,19.70
2022-12-11T13:27:38.766Z,20.67
2022-12-11T13:30:21.787Z,19.67
2022-12-11T13:33:01.007Z,16.83
2022-12-11T13:35:30.971Z,17.00
2022-12-11T13:38:05.375Z,17.80
2022-12-11T13:40:40.154Z,17.07
2022-12-11T13:43:17.278Z,17.07
2022-12-11T13:45:50.348Z,23.83
2022-12-11T13:48:24.721Z,12.90
2022-12-11T13:50:55.045Z,16.00
2022-12-11T13:53:22.843Z,11.47
2022-12-11T13:55:57.831Z,16.20
2022-12-11T13:58:26.177Z,15.03
2022-12-11T14:01:08.578Z,14.33
2022-12-11T14:03:36.827Z,18.60
2022-12-11T14:06:16.434Z,17.60
2022-12-11T14:08:48.555Z,15.60
2022-12-11T14:11:22.480Z,12.90
2022-12-11T14:13:50.839Z,11.30
2022-12-11T14:16:22.980Z,14.93
2022-12-11T14:18:52.601Z,17.13
2022-12-11T14:21:24.612Z,18.07
2022-12-11T14:23:54.423Z,15.93
2022-12-11T14:26:23.874Z,13.27
2022-12-11T14:28:51.994Z,18.70
2022-12-11T14:31:27.863Z,13.60
2022-12-11T14:33:59.949Z,19.40
2022-12-11T14:36:55.227Z,16.53
2022-12-11T14:39:28.033Z,11.73
2022-12-11T14:42:04.187Z,9.90
2022-12-11T14:44:43.155Z,14.53
2022-12-11T14:47:16.347Z,12.90
2022-12-11T14:49:48.409Z,13.23
2022-12-11T14:52:21.183Z,15.27
2022-12-11T14:54:58.278Z,11.20
2022-12-11T14:57:29.999Z,13.77
2022-12-11T14:59:58.783Z,14.70
2022-12-11T15:02:29.920Z,12.63
2022-12-11T15:05:17.974Z,17.27
2022-12-11T15:07:56.719Z,7.53
2022-12-11T15:10:31.139Z,10.27
2022-12-11T15:12:59.548Z,11.10
2022-12-11T15:15:30.961Z,14.90
2022-12-11T15:17:58.705Z,13.07
2022-12-11T15:20:29.231Z,15.27
2022-12-11T15:23:02.012Z,14.40
2022-12-11T15:25:32.573Z,13.37
2022-12-11T15:28:01.995Z,17.73
2022-12-11T15:30:35.802Z,11.50
2022-12-11T15:33:19.540Z,15.63
2022-12-11T15:36:02.454Z,12.63
2022-12-11T15:38:35.335Z,15.70
2022-12-11T15:41:03.707Z,14.90
2022-12-11T15:43:35.392Z,11.53
2022-12-11T15:46:03.896Z,12.80
2022-12-11T15:48:31.532Z,9.87
2022-12-11T15:50:59.305Z,16.00
2022-12-11T15:53:26.908Z,13.47
2022-12-11T15:55:58.548Z,10.70
2022-12-11T15:58:27.229Z,11.97
2022-12-11T16:00:55.424Z,11.60
2022-12-11T16:03:24.510Z,14.07
2022-12-11T16:05:53.714Z,13.73
2022-12-11T16:08:23.825Z,14.00
2022-12-11T16:10:54.488Z,15.33
2022-12-11T16:13:23.799Z,13.07
2022-12-11T16:15:54.338Z,13.47
2022-12-11T16:18:29.820Z,24.50
2022-12-11T16:20:57.486Z,49.87
2022-12-11T16:23:25.204Z,25.87
2022-12-11T16:25:52.770Z,34.40
2022-12-11T16:28:21.689Z,26.40
2022-12-11T16:30:50.668Z,18.07
2022-12-11T16:33:18.466Z,30.33
2022-12-11T16:35:46.089Z,21.10
2022-12-11T16:38:13.794Z,23.77
2022-12-11T16:40:41.703Z,25.83
2022-12-11T16:43:10.903Z,24.30
2022-12-11T16:45:38.528Z,22.93
2022-12-11T16:48:08.159Z,19.77
2022-12-11T16:50:36.507Z,16.03
2022-12-11T16:53:04.415Z,15.80
2022-12-11T16:55:32.307Z,14.97
2022-12-11T16:58:00.008Z,10.13
2022-12-11T17:00:28.162Z,16.50
2022-12-11T17:02:56.124Z,15.97
2022-12-11T17:05:25.929Z,15.97
2022-12-11T17:07:53.524Z,15.60
2022-12-11T17:10:21.105Z,20.60
2022-12-11T17:12:48.675Z,17.77
2022-12-11T17:15:16.308Z,23.80
2022-12-11T17:17:44.075Z,11.40
2022-12-11T17:20:12.268Z,19.80
2022-12-11T17:22:41.364Z,18.53
2022-12-11T17:25:09.805Z,15.47
2022-12-11T17:27:37.691Z,17.47
2022-12-11T17:30:06.800Z,18.07
2022-12-11T17:32:34.958Z,24.17
2022-12-11T17:35:02.590Z,25.50
2022-12-11T17:37:31.548Z,21.30
2022-12-11T17:40:00.713Z,26.53
2022-12-11T17:42:28.569Z,23.23
2022-12-11T17:44:57.315Z,24.70
2022-12-11T17:47:25.151Z,22.20
2022-12-11T17:50:57.458Z,29.73
2022-12-11T17:53:26.319Z,26.33
2022-12-11T17:55:56.740Z,22.67
2022-12-11T17:58:24.551Z,21.23
2022-12-11T18:00:54.365Z,27.10
2022-12-11T18:03:22.792Z,25.57
2022-12-11T18:05:54.121Z,24.87
2022-12-11T18:08:25.046Z,19.07
2022-12-11T18:10:57.918Z,21.30
2022-12-11T18:13:26.491Z,27.10
2022-12-11T18:16:01.676Z,20.00
2022-12-11T18:18:29.566Z,43.07
2022-12-11T18:21:00.245Z,30.03
2022-12-11T18:23:30.853Z,23.63
2022-12-11T18:26:00.290Z,29.13
2022-12-11T18:28:31.574Z,25.10
2022-12-11T18:31:00.843Z,28.13
2022-12-11T18:33:32.369Z,27.73
2022-12-11T18:36:00.209Z,27.27
2022-12-11T18:38:28.532Z,23.80
2022-12-11T18:40:56.462Z,21.60
2022-12-11T18:43:26.733Z,27.97
2022-12-11T18:45:54.382Z,26.53
2022-12-11T18:48:28.441Z,35.37
2022-12-11T18:50:56.329Z,36.53
2022-12-11T18:53:24.191Z,26.90
2022-12-11T18:55:57.113Z,24.67
2022-12-11T18:58:29.466Z,22.63
2022-12-11T19:00:57.299Z,26.23
2022-12-11T19:03:25.049Z,25.70
2022-12-11T19:05:52.760Z,24.50
2022-12-11T19:08:21.012Z,26.53
2022-12-11T19:10:48.970Z,30.13
2022-12-11T19:16:22.697Z,24.40
2022-12-11T19:18:51.819Z,26.27
2022-12-11T19:21:20.502Z,22.03
2022-12-11T19:23:49.203Z,28.27
2022-12-11T19:26:19.098Z,23.00
2022-12-11T19:28:48.103Z,21.23
2022-12-11T19:31:19.955Z,21.53
2022-12-11T19:33:48.710Z,14.37
2022-12-11T19:36:18.704Z,25.23
2022-12-11T19:38:46.946Z,20.53
2022-12-11T19:41:17.804Z,24.87
2022-12-11T19:43:45.620Z,14.93
2022-12-11T19:46:14.503Z,22.60
2022-12-11T19:48:44.216Z,18.13
2022-12-11T19:51:14.618Z,19.40
2022-12-11T19:53:43.570Z,23.30
2022-12-11T19:56:12.353Z,21.50
2022-12-11T19:58:43.060Z,28.30
2022-12-11T20:01:11.675Z,22.37
2022-12-11T20:03:41.178Z,21.03
2022-12-11T20:06:10.798Z,28.87
2022-12-11T20:08:46.419Z,26.13
2022-12-11T20:11:18.268Z,31.50
2022-12-11T20:13:46.995Z,19.43
2022-12-11T20:16:15.924Z,25.43
2022-12-11T20:18:44.276Z,29.67
2022-12-11T20:21:15.979Z,27.10
2022-12-11T20:23:44.285Z,16.30
2022-12-11T20:26:14.853Z,27.03
2022-12-11T20:28:44.809Z,28.57
2022-12-11T20:31:20.043Z,26.13
2022-12-11T20:33:49.798Z,33.43
2022-12-11T20:36:21.369Z,33.13
2022-12-11T20:38:49.735Z,29.43
2022-12-11T20:41:19.830Z,25.03
2022-12-11T20:43:48.924Z,25.03
2022-12-11T20:46:18.558Z,31.37
2022-12-11T20:48:46.226Z,28.57
2022-12-11T20:51:22.394Z,27.07
2022-12-11T20:53:58.701Z,24.43
2022-12-11T20:56:29.862Z,28.70
2022-12-11T20:58:58.387Z,23.57
2022-12-11T21:01:28.351Z,28.93
2022-12-11T21:03:55.990Z,23.43
2022-12-11T21:06:26.262Z,25.90
2022-12-11T21:08:55.747Z,27.90
2022-12-11T21:11:23.789Z,24.83
2022-12-11T21:13:51.955Z,32.03
2022-12-11T21:16:20.369Z,27.80
2022-12-11T21:18:48.547Z,37.47
2022-12-11T21:21:17.405Z,27.07
2022-12-11T21:23:45.643Z,39.97
2022-12-11T21:26:15.421Z,28.37
2022-12-11T21:28:42.993Z,33.00
2022-12-11T21:31:14.262Z,25.67
2022-12-11T21:33:42.448Z,24.60
2022-12-11T21:36:12.659Z,29.10
2022-12-11T21:38:41.160Z,29.23
2022-12-11T21:41:10.407Z,25.83
2022-12-11T21:44:00.183Z,25.97
2022-12-11T21:46:29.147Z,36.67
2022-12-11T21:48:57.030Z,29.00
2022-12-11T21:51:29.765Z,33.20
2022-12-11T21:54:03.161Z,27.97
2022-12-11T21:56:31.609Z,34.00
2022-12-11T21:59:01.422Z,39.17
2022-12-11T22:01:32.243Z,39.80
2022-12-11T22:04:00.873Z,35.70
2022-12-11T22:06:29.403Z,26.60
2022-12-11T22:08:57.135Z,28.60
2022-12-11T22:11:32.538Z,41.13
2022-12-11T22:14:01.936Z,39.27
2022-12-11T22:16:30.274Z,38.10
2022-12-11T22:18:59.296Z,30.50
2022-12-11T22:21:26.959Z,32.17
2022-12-11T22:23:55.412Z,44.07
2022-12-11T22:26:25.272Z,34.33
2022-12-11T22:28:53.452Z,37.90
2022-12-11T22:31:25.119Z,33.10
2022-12-11T22:33:54.928Z,37.57
2022-12-11T22:36:23.256Z,32.47
2022-12-11T22:38:51.120Z,25.90
2022-12-11T22:41:24.573Z,42.83
2022-12-11T22:43:52.338Z,30.17
2022-12-11T22:46:23.822Z,32.93
2022-12-11T22:48:51.960Z,34.10
2022-12-11T22:51:20.178Z,39.20
2022-12-11T22:53:48.040Z,32.33
2022-12-11T22:56:15.779Z,32.77
2022-12-11T22:58:43.578Z,27.60
2022-12-11T23:01:13.910Z,32.37
2022-12-11T23:03:43.355Z,30.17
2022-12-11T23:06:14.100Z,15.77
2022-12-11T23:08:43.197Z,21.77
2022-12-11T23:11:12.539Z,31.57
2022-12-11T23:13:41.514Z,18.13
2022-12-11T23:16:09.617Z,26.53
2022-12-11T23:18:37.304Z,29.73
2022-12-11T23:21:07.048Z,24.77
2022-12-11T23:23:34.624Z,30.57
2022-12-11T23:26:03.157Z,30.97
2022-12-11T23:28:30.918Z,30.10
2022-12-11T23:30:58.618Z,28.10
2022-12-11T23:33:26.801Z,24.47
2022-12-11T23:35:55.223Z,34.27
2022-12-11T23:38:25.601Z,33.10
2022-12-11T23:40:54.727Z,41.63
2022-12-11T23:43:23.113Z,38.93
2022-12-11T23:45:50.723Z,34.53
2022-12-11T23:48:18.781Z,33.27
2022-12-11T23:50:46.744Z,32.63
2022-12-11T23:53:14.724Z,28.90
2022-12-11T23:55:45.616Z,25.27
2022-12-11T23:58:13.578Z,39.77
